Time;durP1;ratioP1;P1;durP2;ratioP2;P2;SDS_P1;SDS_P2;PMS_P1;PMS_P2;Temp;Humidity;BMP_temperature;BMP_pressure;BME280_temperature;BME280_humidity;BME280_pressure;Samples;Min_cycle;Max_cycle;Signal;HPM_P1;HPM_P2
2022/07/21 00:00:17;;;;;;;8.20;5.55;;;;;;;19.68;100.00;96177.59;5029820;28;24483;-71
2022/07/21 00:02:44;;;;;;;6.95;5.45;;;;;;;19.67;100.00;96173.31;5030034;28;24527;-71
2022/07/21 00:05:11;;;;;;;7.20;5.60;;;;;;;19.64;100.00;96177.06;5029787;28;24438;-71
2022/07/21 00:07:38;;;;;;;7.63;5.65;;;;;;;19.79;100.00;96175.63;5029115;28;24984;-71
2022/07/21 00:10:05;;;;;;;6.43;5.82;;;;;;;19.95;100.00;96175.03;5029461;28;25054;-71
2022/07/21 00:12:32;;;;;;;7.43;5.70;;;;;;;19.57;100.00;96186.44;5029474;28;24458;-71
2022/07/21 00:14:58;;;;;;;8.02;5.53;;;;;;;19.42;100.00;96188.69;5029719;28;24451;-71
2022/07/21 00:17:25;;;;;;;5.80;5.20;;;;;;;19.47;100.00;96181.22;5027760;28;24428;-71
2022/07/21 00:19:51;;;;;;;8.30;6.00;;;;;;;19.54;100.00;96187.56;5029575;28;24432;-71
2022/07/21 00:22:19;;;;;;;7.22;5.60;;;;;;;19.49;100.00;96202.09;5029358;28;24972;-71
2022/07/21 00:24:45;;;;;;;9.77;6.25;;;;;;;19.40;100.00;96223.97;5029995;28;24977;-71
2022/07/21 00:27:12;;;;;;;8.70;6.50;;;;;;;19.37;100.00;96225.06;5030355;28;24440;-71
2022/07/21 00:29:38;;;;;;;11.65;6.75;;;;;;;19.38;100.00;96218.00;5030121;28;24443;-71
2022/07/21 00:32:06;;;;;;;8.40;6.35;;;;;;;19.31;100.00;96209.84;5030184;28;24447;-71
2022/07/21 00:34:32;;;;;;;8.60;6.65;;;;;;;19.19;100.00;96210.97;5029956;28;24996;-71
2022/07/21 00:36:58;;;;;;;8.60;7.05;;;;;;;19.07;100.00;96224.22;5030607;28;24439;-71
2022/07/21 00:39:26;;;;;;;10.73;6.72;;;;;;;18.92;100.00;96215.09;5020866;28;24440;-71
2022/07/21 00:41:53;;;;;;;10.37;6.50;;;;;;;18.97;100.00;96226.00;5027949;28;24829;-71
2022/07/21 00:44:21;;;;;;;9.10;6.50;;;;;;;19.17;100.00;96220.75;5029600;28;24431;-71
2022/07/21 00:46:47;;;;;;;6.05;5.22;;;;;;;19.28;100.00;96225.88;5029824;28;24431;-71
2022/07/21 00:49:14;;;;;;;7.88;6.03;;;;;;;19.36;100.00;96227.84;5030178;28;24969;-71
2022/07/21 00:51:40;;;;;;;7.05;5.75;;;;;;;19.46;100.00;96236.50;5030136;28;24498;-71
2022/07/21 00:54:07;;;;;;;8.57;5.90;;;;;;;19.49;100.00;96229.19;5028854;28;24436;-71
2022/07/21 00:56:35;;;;;;;6.00;5.28;;;;;;;19.41;100.00;96221.19;5029719;28;24443;-71
2022/07/21 00:59:02;;;;;;;6.87;5.73;;;;;;;19.47;100.00;96225.88;5024625;28;24453;-71
2022/07/21 01:01:28;;;;;;;6.93;5.77;;;;;;;19.55;100.00;96217.28;5030046;28;24431;-71
2022/07/21 01:03:55;;;;;;;12.18;6.07;;;;;;;19.59;100.00;96206.34;5029785;28;24992;-71
2022/07/21 01:06:24;;;;;;;6.32;5.47;;;;;;;19.60;100.00;96201.94;5029573;28;24436;-71
2022/07/21 01:08:51;;;;;;;7.53;6.10;;;;;;;19.62;100.00;96201.81;5029912;28;24436;-71
2022/07/21 01:11:18;;;;;;;7.60;5.80;;;;;;;19.62;100.00;96202.66;5030084;28;24528;-71
2022/07/21 01:13:46;;;;;;;8.15;5.90;;;;;;;19.67;100.00;96203.06;5029836;28;24432;-71
2022/07/21 01:16:12;;;;;;;8.75;6.07;;;;;;;19.66;100.00;96214.53;5029911;28;24436;-71
2022/07/21 01:18:39;;;;;;;6.97;5.25;;;;;;;19.69;100.00;96216.03;5029519;28;24435;-71
2022/07/21 01:21:13;;;;;;;10.38;5.47;;;;;;;19.55;100.00;96228.63;5033604;28;25016;-71
2022/07/21 01:23:40;;;;;;;6.50;5.40;;;;;;;19.54;100.00;96213.84;5032155;28;24435;-71
2022/07/21 01:26:06;;;;;;;9.57;5.80;;;;;;;19.53;100.00;96217.41;5033657;28;24436;-71
2022/07/21 01:28:32;;;;;;;6.85;5.80;;;;;;;19.53;100.00;96227.09;5033308;28;24543;-71
2022/07/21 01:30:59;;;;;;;7.75;5.80;;;;;;;19.40;100.00;96226.59;5032559;28;24451;-71
2022/07/21 01:33:25;;;;;;;8.38;6.07;;;;;;;19.39;100.00;96225.72;5030665;28;24431;-71
2022/07/21 01:35:52;;;;;;;6.47;5.57;;;;;;;19.34;100.00;96227.94;5033202;28;24926;-71
2022/07/21 01:43:47;;;;;;;8.15;5.63;;;;;;;19.03;100.00;96240.41;5032716;28;24423;-71
2022/07/21 01:46:14;;;;;;;10.67;5.73;;;;;;;19.07;100.00;96244.41;5033042;28;24451;-71
2022/07/21 01:48:44;;;;;;;6.35;5.70;;;;;;;19.06;100.00;96229.63;5033121;28;24428;-71
2022/07/21 01:51:10;;;;;;;8.68;6.13;;;;;;;19.13;100.00;96243.00;5033049;28;24452;-71
2022/07/21 01:53:39;;;;;;;6.55;5.60;;;;;;;19.17;100.00;96239.13;5033788;28;25019;-71
2022/07/21 01:56:07;;;;;;;6.63;5.30;;;;;;;19.16;100.00;96240.13;5033533;28;24436;-71
2022/07/21 01:58:33;;;;;;;6.50;5.50;;;;;;;19.09;100.00;96235.41;5033219;28;24947;-71
2022/07/21 02:01:00;;;;;;;11.10;6.20;;;;;;;18.86;100.00;96226.13;5033324;28;24509;-71
2022/07/21 02:03:27;;;;;;;6.97;5.70;;;;;;;18.68;100.00;96225.09;5032535;28;24435;-71
2022/07/21 02:05:53;;;;;;;9.38;6.05;;;;;;;18.55;100.00;96234.06;5032238;28;25048;-71
2022/07/21 02:08:20;;;;;;;8.70;5.85;;;;;;;18.63;100.00;96236.00;5032054;28;24981;-71
2022/07/21 02:10:47;;;;;;;7.18;5.70;;;;;;;18.78;100.00;96246.97;5032377;28;24428;-71
2022/07/21 02:13:14;;;;;;;6.85;5.43;;;;;;;18.94;100.00;96242.03;5032283;28;24459;-71
2022/07/21 02:15:41;;;;;;;8.57;5.65;;;;;;;19.03;100.00;96233.34;5032507;28;24447;-71
2022/07/21 02:18:07;;;;;;;6.75;5.70;;;;;;;18.96;100.00;96242.72;5032172;28;24455;-72
2022/07/21 02:20:34;;;;;;;7.40;5.50;;;;;;;19.12;100.00;96231.69;5032387;28;24440;-71
2022/07/21 02:23:00;;;;;;;6.43;5.67;;;;;;;19.24;100.00;96237.63;5032380;28;24435;-71
2022/07/21 02:25:26;;;;;;;7.28;5.30;;;;;;;19.27;100.00;96226.84;5032206;28;24482;-71
2022/07/21 02:27:54;;;;;;;5.90;5.22;;;;;;;19.30;100.00;96229.19;5032093;28;24870;-71
2022/07/21 02:30:21;;;;;;;5.35;4.80;;;;;;;19.37;100.00;96237.38;5031537;28;24431;-71
2022/07/21 02:32:47;;;;;;;7.28;5.85;;;;;;;19.62;100.00;96234.19;5030678;28;24849;-71
2022/07/21 02:35:14;;;;;;;7.90;4.72;;;;;;;19.48;100.00;96232.78;5027877;28;24444;-71
2022/07/21 02:37:40;;;;;;;5.85;5.25;;;;;;;19.43;100.00;96237.63;5023962;28;24438;-71
2022/07/21 02:40:08;;;;;;;8.70;5.23;;;;;;;19.42;100.00;96235.97;5025997;28;24523;-71
2022/07/21 02:42:34;;;;;;;7.33;5.13;;;;;;;19.41;100.00;96242.19;5030874;28;24872;-71
2022/07/21 02:45:02;;;;;;;5.88;5.20;;;;;;;19.43;100.00;96240.25;5031131;28;24486;-71
2022/07/21 02:47:29;;;;;;;6.70;5.05;;;;;;;19.41;100.00;96234.31;5031116;28;25054;-71
2022/07/21 02:49:55;;;;;;;5.20;4.70;;;;;;;19.42;100.00;96245.63;5029257;28;24486;-71
2022/07/21 02:52:21;;;;;;;5.40;4.68;;;;;;;19.29;100.00;96253.81;5028754;28;24452;-72
2022/07/21 02:54:48;;;;;;;7.05;5.13;;;;;;;19.36;100.00;96259.34;5030854;28;24448;-71
2022/07/21 02:57:14;;;;;;;5.53;5.03;;;;;;;19.33;100.00;96261.28;5031090;28;24486;-71
2022/07/21 02:59:41;;;;;;;6.80;4.85;;;;;;;19.30;100.00;96258.91;5031078;28;24489;-72
2022/07/21 03:02:08;;;;;;;6.25;5.00;;;;;;;19.21;100.00;96249.25;5031114;28;24435;-71
2022/07/21 03:04:35;;;;;;;7.60;5.40;;;;;;;18.78;100.00;96249.59;5030815;28;24440;-71
2022/07/21 03:07:02;;;;;;;5.68;5.00;;;;;;;18.59;100.00;96248.56;5030959;28;24543;-71
2022/07/21 03:09:29;;;;;;;5.90;5.07;;;;;;;18.53;100.00;96241.22;5030267;28;24490;-71
2022/07/21 03:11:55;;;;;;;6.13;5.03;;;;;;;18.60;100.00;96252.00;5030926;28;24544;-71
2022/07/21 03:14:21;;;;;;;6.15;4.97;;;;;;;18.78;100.00;96262.72;5030752;28;24435;-71
2022/07/21 03:16:48;;;;;;;10.68;5.50;;;;;;;18.87;100.00;96267.16;5030770;28;24439;-71
2022/07/21 03:19:16;;;;;;;7.28;5.22;;;;;;;18.90;100.00;96269.50;5030472;28;24439;-71
2022/07/21 03:21:42;;;;;;;5.10;4.60;;;;;;;18.93;100.00;96264.00;5030450;28;25015;-71
2022/07/21 03:24:08;;;;;;;6.25;5.13;;;;;;;18.93;100.00;96279.75;5030830;28;24435;-71
2022/07/21 03:26:38;;;;;;;6.20;5.20;;;;;;;18.96;100.00;96266.34;5021524;28;24447;-71
2022/07/21 03:29:05;;;;;;;8.50;4.90;;;;;;;19.03;100.00;96267.47;5030329;28;24809;-71
2022/07/21 03:31:31;;;;;;;4.88;4.38;;;;;;;19.10;100.00;96276.47;5030281;28;24428;-71
2022/07/21 03:33:58;;;;;;;8.38;5.00;;;;;;;19.13;100.00;96272.72;5028002;28;24443;-71
2022/07/21 03:36:25;;;;;;;7.00;5.00;;;;;;;19.10;100.00;96270.38;5029677;28;24980;-71
2022/07/21 03:38:52;;;;;;;5.45;4.75;;;;;;;19.09;100.00;96272.16;5025015;28;24432;-71
2022/07/21 03:41:18;;;;;;;6.65;5.07;;;;;;;18.97;100.00;96275.06;5024660;28;24493;-71
2022/07/21 03:43:45;;;;;;;5.13;4.37;;;;;;;19.03;100.00;96277.97;5029456;28;24431;-71
2022/07/21 03:46:11;;;;;;;7.25;4.70;;;;;;;19.04;100.00;96260.44;5027834;28;24482;-74
2022/07/21 03:48:38;;;;;;;5.68;4.60;;;;;;;19.06;100.00;96271.63;5028926;28;24428;-71
2022/07/21 03:51:04;;;;;;;6.05;4.78;;;;;;;19.06;100.00;96264.59;5029764;28;24431;-71
2022/07/21 03:53:32;;;;;;;6.28;4.97;;;;;;;19.05;100.00;96270.78;5029978;28;24454;-73
2022/07/21 03:55:59;;;;;;;6.40;4.90;;;;;;;18.88;100.00;96268.84;5030450;28;24451;-75
2022/07/21 03:58:26;;;;;;;7.20;5.25;;;;;;;18.56;100.00;96272.44;5029875;28;24431;-75
2022/07/21 04:00:53;;;;;;;6.32;4.90;;;;;;;18.38;100.00;96266.97;5028377;28;24427;-75
2022/07/21 04:03:19;;;;;;;5.88;4.95;;;;;;;18.42;100.00;96272.78;5027226;28;24853;-76
2022/07/21 04:05:46;;;;;;;6.38;5.00;;;;;;;18.38;100.00;96272.22;5022886;28;24463;-74
2022/07/21 04:08:13;;;;;;;6.18;5.57;;;;;;;18.42;100.00;96266.72;5029814;28;24443;-73
2022/07/21 04:10:43;;;;;;;7.72;5.45;;;;;;;18.56;100.00;96269.00;5021998;28;24874;-73
2022/07/21 04:13:12;;;;;;;5.53;4.72;;;;;;;18.66;100.00;96276.91;5030011;28;24459;-73
2022/07/21 04:15:39;;;;;;;5.90;4.40;;;;;;;18.65;100.00;96278.69;5029782;28;24992;-73
2022/07/21 04:18:07;;;;;;;5.95;5.40;;;;;;;18.62;100.00;96277.16;5029495;28;24462;-75
2022/07/21 04:20:33;;;;;;;6.18;5.20;;;;;;;18.83;100.00;96284.13;5025656;28;24444;-73
2022/07/21 04:23:00;;;;;;;6.57;5.32;;;;;;;18.73;100.00;96285.94;5030094;28;24837;-73
2022/07/21 04:25:26;;;;;;;5.10;4.60;;;;;;;18.70;100.00;96288.78;5030078;28;24440;-73
2022/07/21 04:27:54;;;;;;;5.43;4.93;;;;;;;18.43;100.00;96292.84;5030015;28;24853;-73
2022/07/21 04:30:22;;;;;;;10.50;5.70;;;;;;;18.54;100.00;96294.50;5028043;28;25005;-73
2022/07/21 04:32:49;;;;;;;6.43;5.45;;;;;;;18.41;100.00;96288.69;5019098;28;24452;-73
2022/07/21 04:35:16;;;;;;;6.25;4.90;;;;;;;18.43;100.00;96292.84;5029567;28;24432;-73
2022/07/21 04:37:43;;;;;;;6.93;4.82;;;;;;;18.44;100.00;96296.28;5029532;28;24423;-73
2022/07/21 04:40:11;;;;;;;7.18;4.68;;;;;;;18.49;100.00;96300.16;5029691;28;24463;-74
2022/07/21 04:42:38;;;;;;;5.18;4.30;;;;;;;18.46;100.00;96304.84;5029785;28;24424;-73
2022/07/21 04:45:08;;;;;;;9.13;4.05;;;;;;;18.47;100.00;96299.47;5029824;28;24451;-73
2022/07/21 04:47:42;;;;;;;9.70;4.72;;;;;;;18.54;100.00;96294.50;5029690;28;24439;-73
2022/07/21 04:50:10;;;;;;;5.80;4.80;;;;;;;18.58;100.00;96288.88;5027621;28;24498;-73
2022/07/21 04:52:36;;;;;;;6.90;5.25;;;;;;;18.46;100.00;96305.66;5029135;28;24455;-73
2022/07/21 04:55:03;;;;;;;7.47;5.75;;;;;;;18.54;100.00;96307.63;5033283;28;24436;-73
2022/07/21 04:57:30;;;;;;;8.50;6.38;;;;;;;18.56;100.00;96309.16;5033453;28;24435;-73
2022/07/21 04:59:56;;;;;;;17.75;6.18;;;;;;;18.55;100.00;96314.56;5033347;28;24443;-73
2022/07/21 05:02:24;;;;;;;8.82;7.00;;;;;;;18.53;100.00;96306.78;5033626;28;24424;-73
2022/07/21 05:04:50;;;;;;;8.40;6.95;;;;;;;18.59;100.00;96303.66;5033897;28;24587;-73
2022/07/21 05:07:17;;;;;;;9.23;6.43;;;;;;;18.60;100.00;96307.09;5033093;28;24478;-73
2022/07/21 05:09:43;;;;;;;10.65;7.03;;;;;;;18.80;100.00;96308.00;5032688;28;24436;-73
2022/07/21 05:12:11;;;;;;;8.45;7.10;;;;;;;18.84;100.00;96304.19;5033325;28;24444;-73
2022/07/21 05:14:37;;;;;;;8.95;6.47;;;;;;;18.81;100.00;96302.66;5033039;28;24857;-73
2022/07/21 05:17:03;;;;;;;8.02;6.60;;;;;;;18.78;100.00;96310.78;5033277;28;24977;-73
2022/07/21 05:19:31;;;;;;;7.50;6.70;;;;;;;18.87;100.00;96311.78;5033269;28;24498;-73
2022/07/21 05:21:58;;;;;;;7.95;7.00;;;;;;;18.92;100.00;96317.47;5033411;28;24478;-73
2022/07/21 05:24:24;;;;;;;7.35;6.55;;;;;;;18.99;100.00;96317.75;5025739;28;24432;-73
2022/07/21 05:26:51;;;;;;;6.80;6.20;;;;;;;18.96;100.00;96324.09;5032931;28;24845;-73
2022/07/21 05:29:17;;;;;;;10.63;6.65;;;;;;;19.01;100.00;96316.63;5032340;28;24451;-73
2022/07/21 05:31:44;;;;;;;10.52;6.38;;;;;;;19.01;100.00;96319.25;5033246;28;24444;-74
2022/07/21 05:34:11;;;;;;;6.40;5.80;;;;;;;19.21;100.00;96330.66;5029065;28;24455;-76
2022/07/21 05:36:39;;;;;;;8.45;6.22;;;;;;;19.32;100.00;96322.66;5026906;28;24578;-68
2022/07/21 05:39:05;;;;;;;7.75;6.25;;;;;;;19.51;100.00;96323.63;5030205;28;24435;-73
2022/07/21 05:41:32;;;;;;;7.18;6.20;;;;;;;19.64;100.00;96326.00;5024592;28;24522;-73
2022/07/21 05:43:58;;;;;;;8.40;6.30;;;;;;;19.74;100.00;96327.66;5026097;28;25133;-73
2022/07/21 05:46:25;;;;;;;6.88;6.05;;;;;;;19.84;100.00;96330.28;5033940;28;25194;-76
2022/07/21 05:48:54;;;;;;;8.93;6.75;;;;;;;19.77;100.00;96334.44;5034150;28;25035;-73
2022/07/21 05:51:20;;;;;;;8.35;6.45;;;;;;;19.72;100.00;96334.03;5027969;28;24422;-73
2022/07/21 05:53:48;;;;;;;8.10;5.73;;;;;;;20.02;100.00;96347.03;5032327;28;24498;-73
2022/07/21 05:56:14;;;;;;;8.83;5.80;;;;;;;20.04;100.00;96342.44;5028564;28;24493;-74
2022/07/21 05:58:41;;;;;;;7.07;5.63;;;;;;;20.18;100.00;96340.34;5026563;28;24474;-74
2022/07/21 06:01:12;;;;;;;8.48;6.07;;;;;;;19.98;100.00;96344.78;5032249;28;24818;-73
2022/07/21 06:03:41;;;;;;;6.72;6.03;;;;;;;20.10;100.00;96355.97;5024736;28;25004;-73
2022/07/21 06:06:08;;;;;;;12.87;5.60;;;;;;;19.90;100.00;96352.56;5029410;28;24470;-72
2022/07/21 06:08:37;;;;;;;6.82;5.47;;;;;;;20.01;100.00;96352.41;5028997;28;24481;-72
2022/07/21 06:11:04;;;;;;;9.17;5.30;;;;;;;20.15;100.00;96356.41;5026680;28;24435;-71
2022/07/21 06:13:31;;;;;;;6.97;5.40;;;;;;;20.19;100.00;96355.16;5027290;28;24543;-71
2022/07/21 06:15:57;;;;;;;5.50;5.00;;;;;;;20.25;100.00;96355.41;5032003;28;24490;-73
2022/07/21 06:18:24;;;;;;;7.45;5.40;;;;;;;20.19;100.00;96360.41;5031542;28;24443;-72
2022/07/21 06:20:50;;;;;;;9.73;4.93;;;;;;;20.12;100.00;96352.25;5031996;28;24436;-72
2022/07/21 06:23:17;;;;;;;5.03;4.53;;;;;;;20.29;100.00;96353.34;5031599;28;24491;-71
2022/07/21 06:25:44;;;;;;;13.23;5.45;;;;;;;20.25;100.00;96365.94;5031778;28;24440;-71
2022/07/21 06:28:12;;;;;;;12.55;5.38;;;;;;;20.29;100.00;96354.16;5031552;28;24435;-71
2022/07/21 06:30:38;;;;;;;5.88;5.22;;;;;;;20.36;100.00;96356.19;5031753;28;24794;-71
2022/07/21 06:33:05;;;;;;;6.40;5.38;;;;;;;20.40;100.00;96353.16;5031613;28;24505;-71
2022/07/21 06:35:32;;;;;;;5.90;5.40;;;;;;;20.34;100.00;96352.91;5031217;28;25099;-71
2022/07/21 06:37:58;;;;;;;6.18;4.53;;;;;;;20.57;100.00;96358.69;5031286;28;24439;-71
2022/07/21 06:40:25;;;;;;;7.05;5.43;;;;;;;20.28;100.00;96359.53;5029580;28;24428;-71
2022/07/21 06:42:51;;;;;;;13.15;5.65;;;;;;;20.42;100.00;96358.28;5031990;28;24474;-71
2022/07/21 06:45:19;;;;;;;8.23;5.75;;;;;;;20.52;100.00;96359.94;5031114;28;25072;-71
2022/07/21 06:47:45;;;;;;;6.95;5.75;;;;;;;20.57;100.00;96350.78;5031679;28;24486;-72
2022/07/21 06:50:12;;;;;;;7.63;5.28;;;;;;;20.70;100.00;96353.94;5031057;28;24442;-72
2022/07/21 06:52:39;;;;;;;6.27;5.40;;;;;;;20.69;100.00;96357.50;5031683;28;24515;-71
2022/07/21 06:55:07;;;;;;;5.78;4.93;;;;;;;20.88;99.78;96370.63;5031276;28;24494;-71
2022/07/21 06:57:34;;;;;;;6.80;4.90;;;;;;;21.08;96.10;96357.34;5030929;28;24482;-71
2022/07/21 07:00:01;;;;;;;6.75;4.95;;;;;;;21.49;94.39;96369.19;5031186;28;24427;-71
2022/07/21 07:02:29;;;;;;;6.95;5.22;;;;;;;21.50;91.87;96366.41;5031073;28;24431;-71
2022/07/21 07:04:55;;;;;;;9.32;5.53;;;;;;;21.81;94.09;96371.31;5031070;28;24432;-73
2022/07/21 07:07:22;;;;;;;9.32;5.18;;;;;;;;;;5030794;28;24428;-71
2022/07/21 07:09:48;;;;;;;7.25;5.13;;;;;;;22.32;87.89;96369.78;5030827;28;24440;-71
2022/07/21 07:12:15;;;;;;;5.78;4.57;;;;;;;22.14;86.15;96375.09;5030835;28;24535;-71
2022/07/21 07:14:41;;;;;;;12.73;5.40;;;;;;;22.08;86.67;96374.84;5030526;28;25009;-71
2022/07/21 07:17:07;;;;;;;8.60;5.07;;;;;;;21.69;87.64;96369.88;5030683;28;24432;-71
2022/07/21 07:19:35;;;;;;;6.53;4.85;;;;;;;21.42;89.21;96365.50;5030355;28;24988;-71
2022/07/21 07:22:02;;;;;;;7.93;4.65;;;;;;;21.64;88.95;96369.50;5030793;28;25035;-71
2022/07/21 07:24:28;;;;;;;9.23;5.43;;;;;;;21.69;87.41;96369.88;5030781;28;24482;-73
2022/07/21 07:26:56;;;;;;;6.13;5.05;;;;;;;21.61;88.02;96373.25;5030864;28;24477;-72
2022/07/21 07:29:23;;;;;;;7.15;4.60;;;;;;;21.80;87.95;96374.91;5030560;28;24544;-71
2022/07/21 07:31:49;;;;;;;8.45;4.68;;;;;;;22.14;84.64;96379.53;5030368;28;24490;-71
2022/07/21 07:34:16;;;;;;;8.32;4.80;;;;;;;22.14;85.49;96382.19;5030313;28;24860;-71
2022/07/21 07:36:43;;;;;;;6.15;5.10;;;;;;;22.30;84.86;96379.66;5030612;28;24443;-72
2022/07/21 07:39:10;;;;;;;6.13;4.50;;;;;;;22.37;84.19;96385.97;5030342;28;24435;-71
2022/07/21 07:41:36;;;;;;;8.30;5.20;;;;;;;22.44;84.51;96383.56;5030286;28;24841;-72
2022/07/21 07:44:03;;;;;;;6.25;4.80;;;;;;;22.51;85.71;96387.22;5030361;28;24420;-71
2022/07/21 07:46:29;;;;;;;7.28;4.88;;;;;;;22.30;84.66;96392.84;5029897;28;24439;-72
2022/07/21 07:48:56;;;;;;;7.63;4.95;;;;;;;22.53;84.52;96389.69;5029948;28;25019;-71
2022/07/21 07:51:23;;;;;;;11.10;5.22;;;;;;;22.50;84.86;96388.19;5030380;28;24521;-71
2022/07/21 07:53:51;;;;;;;6.53;4.50;;;;;;;22.39;83.33;96380.53;5030149;28;24885;-71
2022/07/21 07:56:17;;;;;;;6.13;5.13;;;;;;;22.32;84.85;96388.25;5029894;28;24442;-71
2022/07/21 07:58:44;;;;;;;5.60;4.82;;;;;;;22.17;87.49;96382.72;5029738;28;24988;-71
2022/07/21 08:01:10;;;;;;;7.03;5.00;;;;;;;22.25;85.17;96383.72;5030169;28;24439;-71
2022/07/21 08:03:37;;;;;;;6.93;4.75;;;;;;;22.16;85.97;96378.38;5030134;28;24482;-72
2022/07/21 08:06:06;;;;;;;6.13;4.65;;;;;;;22.15;86.76;96375.91;5029711;28;24825;-71
2022/07/21 08:08:33;;;;;;;7.78;4.70;;;;;;;22.34;85.08;96378.34;5029690;28;24435;-71
2022/07/21 08:11:01;;;;;;;7.05;4.35;;;;;;;22.64;81.54;96384.97;5029845;28;24435;-71
2022/07/21 08:13:27;;;;;;;5.03;4.45;;;;;;;23.41;78.76;96377.91;5029792;28;24471;-71
2022/07/21 08:15:54;;;;;;;5.80;4.17;;;;;;;24.09;76.23;96382.16;5030047;28;24447;-71
2022/07/21 08:18:21;;;;;;;5.07;4.20;;;;;;;24.28;73.42;96375.72;5029690;28;24824;-71
2022/07/21 08:20:48;;;;;;;5.45;4.45;;;;;;;23.94;72.43;96375.06;5030032;28;24435;-71
2022/07/21 08:23:15;;;;;;;6.20;4.17;;;;;;;23.90;72.73;96378.03;5029597;28;24564;-71
2022/07/21 08:25:43;;;;;;;6.10;4.10;;;;;;;23.71;72.23;96377.53;5029469;28;24466;-71
2022/07/21 08:28:12;;;;;;;5.88;3.60;;;;;;;23.80;69.87;96376.53;5028826;28;24432;-71
2022/07/21 08:30:39;;;;;;;6.10;3.80;;;;;;;23.82;71.62;96375.38;5029714;28;25106;-72
2022/07/21 08:33:06;;;;;;;4.38;3.25;;;;;;;24.20;68.34;96378.38;5029517;28;24436;-71
2022/07/21 08:35:33;;;;;;;4.75;3.55;;;;;;;24.21;65.50;96376.53;5029335;28;24486;-71
2022/07/21 08:38:01;;;;;;;4.57;3.30;;;;;;;23.99;67.14;96378.03;5029307;28;24439;-71
2022/07/21 08:40:30;;;;;;;6.18;2.95;;;;;;;24.10;65.80;96380.34;5027477;28;24432;-71
2022/07/21 08:42:56;;;;;;;4.73;2.97;;;;;;;23.84;65.06;96370.78;5029405;28;24490;-71
2022/07/21 08:45:25;;;;;;;3.95;2.75;;;;;;;23.86;65.21;96370.59;5029245;28;25332;-71
2022/07/21 08:47:52;;;;;;;5.22;3.10;;;;;;;23.59;64.77;96379.63;5029267;28;24434;-71
2022/07/21 08:50:19;;;;;;;7.60;3.40;;;;;;;23.04;65.66;96375.66;5029718;28;25055;-72
2022/07/21 08:52:45;;;;;;;4.15;2.63;;;;;;;23.51;64.37;96375.16;5029718;28;24428;-72
2022/07/21 08:55:12;;;;;;;3.17;2.33;;;;;;;23.56;64.00;96370.19;5029004;28;24861;-72
2022/07/21 08:57:39;;;;;;;4.35;2.80;;;;;;;23.73;62.61;96373.75;5029292;28;24435;-72
2022/07/21 09:00:07;;;;;;;2.92;2.42;;;;;;;23.71;64.01;96375.69;5029328;28;24520;-72
2022/07/21 09:02:37;;;;;;;6.50;2.92;;;;;;;23.83;63.27;96374.38;5029204;28;24436;-72
2022/07/21 09:05:05;;;;;;;2.92;2.45;;;;;;;24.11;62.91;96374.91;5029153;28;25070;-72
2022/07/21 09:07:48;;;;;;;4.40;2.60;;;;;;;24.68;61.23;96374.03;5028979;28;24849;-72
2022/07/21 09:10:14;;;;;;;3.65;2.22;;;;;;;25.03;58.43;96369.28;5026046;28;24521;-72
2022/07/21 09:12:50;;;;;;;3.42;2.22;;;;;;;25.05;55.59;96365.47;5029291;28;24837;-72
2022/07/21 09:15:19;;;;;;;4.00;2.10;;;;;;;25.29;56.24;96361.09;5029063;28;24463;-72
2022/07/21 09:18:03;;;;;;;3.72;2.20;;;;;;;25.56;55.57;96360.59;5028947;28;24878;-72
2022/07/21 09:20:29;;;;;;;4.20;2.40;;;;;;;25.23;56.36;96359.13;5028983;28;24436;-72
2022/07/21 09:23:07;;;;;;;3.13;2.33;;;;;;;23.89;59.21;96368.44;5029477;28;24435;-72
2022/07/21 09:25:35;;;;;;;3.85;2.45;;;;;;;23.75;60.44;96379.66;5029096;28;24872;-72
2022/07/21 09:28:08;;;;;;;3.27;2.17;;;;;;;24.30;58.74;96384.31;5028899;28;24476;-72
2022/07/21 09:30:52;;;;;;;4.82;2.83;;;;;;;24.18;59.71;96374.22;5028887;28;24436;-72
2022/07/21 09:33:31;;;;;;;4.90;2.20;;;;;;;24.15;60.47;96375.41;5026365;28;24428;-72
2022/07/21 09:36:01;;;;;;;2.88;2.13;;;;;;;23.89;59.76;96378.22;5028702;28;24510;-72
2022/07/21 09:38:29;;;;;;;4.13;2.40;;;;;;;23.75;59.71;96376.22;5028820;28;24485;-72
2022/07/21 09:40:56;;;;;;;8.43;2.47;;;;;;;23.53;60.30;96380.25;5029224;28;25049;-72
2022/07/21 09:43:41;;;;;;;3.13;2.40;;;;;;;23.71;60.26;96373.06;5032642;28;24519;-72
2022/07/21 09:46:10;;;;;;;6.07;2.60;;;;;;;24.58;59.00;96373.38;5032431;28;24446;-72
2022/07/21 09:48:40;;;;;;;5.22;2.60;;;;;;;24.95;55.77;96370.13;5032113;28;24992;-72
2022/07/21 09:51:27;;;;;;;6.85;3.03;;;;;;;24.74;56.25;96372.53;5032403;28;24439;-72
2022/07/21 09:53:56;;;;;;;5.20;2.50;;;;;;;24.72;55.77;96372.69;5026374;28;24543;-72
2022/07/21 09:56:23;;;;;;;3.45;2.40;;;;;;;25.32;53.69;96364.22;5032094;28;24804;-72
2022/07/21 09:58:51;;;;;;;2.83;2.00;;;;;;;25.65;53.58;96365.84;5032118;28;24432;-72
2022/07/21 10:01:18;;;;;;;2.33;2.10;;;;;;;25.94;52.87;96357.22;5032141;28;24922;-72
2022/07/21 10:03:48;;;;;;;3.53;2.42;;;;;;;26.64;50.53;96354.28;5032211;28;24841;-72
2022/07/21 10:06:18;;;;;;;2.22;1.98;;;;;;;26.37;48.62;96350.41;5032258;28;24436;-72
2022/07/21 10:08:45;;;;;;;5.65;2.20;;;;;;;26.81;47.99;96343.47;5031964;28;24821;-72
2022/07/21 10:11:12;;;;;;;4.00;2.20;;;;;;;26.51;48.73;96354.09;5031952;28;24961;-72
2022/07/21 10:13:39;;;;;;;2.92;2.15;;;;;;;26.88;47.42;96350.53;5032009;28;24922;-72
2022/07/21 10:16:06;;;;;;;2.97;2.30;;;;;;;26.70;47.65;96348.25;5031807;28;24463;-72
2022/07/21 10:18:37;;;;;;;4.38;2.42;;;;;;;26.79;47.57;96341.84;5031301;28;24969;-72
2022/07/21 10:21:24;;;;;;;2.30;2.10;;;;;;;26.77;46.98;96346.53;5032060;28;24490;-72
2022/07/21 10:23:54;;;;;;;4.65;2.50;;;;;;;26.90;46.06;96350.38;5031946;28;24435;-72
2022/07/21 10:26:20;;;;;;;3.05;2.40;;;;;;;27.04;46.55;96352.19;5029058;28;24990;-72
2022/07/21 10:28:47;;;;;;;3.90;2.55;;;;;;;27.24;46.49;96352.47;5031464;28;24436;-72
2022/07/21 10:31:16;;;;;;;3.95;2.40;;;;;;;27.16;46.16;96353.38;5031538;28;24436;-72
2022/07/21 10:33:54;;;;;;;3.80;2.60;;;;;;;26.65;46.65;96349.81;5024560;28;24424;-72
2022/07/21 10:36:43;;;;;;;3.00;2.70;;;;;;;26.27;49.09;96353.28;5028881;28;24440;-72
2022/07/21 10:39:18;;;;;;;3.03;2.40;;;;;;;25.91;47.62;96339.00;5028011;28;24433;-72
2022/07/21 10:41:46;;;;;;;4.30;2.72;;;;;;;25.46;49.40;96343.25;5031418;28;24792;-72
2022/07/21 10:44:38;;;;;;;3.95;2.60;;;;;;;24.93;51.04;96340.34;5031482;28;24485;-72
2022/07/21 10:47:07;;;;;;;3.42;2.83;;;;;;;24.90;51.40;96339.88;5026706;28;24435;-72
2022/07/21 10:49:46;;;;;;;3.05;2.40;;;;;;;25.66;49.02;96333.88;5030434;28;24820;-72
2022/07/21 10:52:50;;;;;;;5.00;2.40;;;;;;;25.98;47.99;96340.75;5030765;28;24993;-72
2022/07/21 10:55:26;;;;;;;3.55;2.47;;;;;;;26.56;49.25;96338.44;5027941;28;24509;-72
2022/07/21 10:58:12;;;;;;;3.15;2.40;;;;;;;27.18;46.65;96335.44;5024508;28;25032;-73
2022/07/21 11:00:39;;;;;;;5.68;2.70;;;;;;;27.32;44.82;96339.06;5031205;28;24436;-72
2022/07/21 11:03:15;;;;;;;3.33;2.28;;;;;;;26.74;45.42;96341.56;5031248;28;24478;-72
2022/07/21 11:06:13;;;;;;;3.97;2.40;;;;;;;26.55;45.69;96334.16;5027773;28;24435;-72
2022/07/21 11:08:41;;;;;;;5.00;2.50;;;;;;;26.59;45.09;96337.25;5024471;28;24961;-72
2022/07/21 11:11:11;;;;;;;3.15;2.13;;;;;;;26.08;46.63;96334.41;5031181;28;24522;-72
2022/07/21 11:14:04;;;;;;;3.97;2.40;;;;;;;25.97;47.12;96331.16;5030908;28;24466;-72
2022/07/21 11:17:07;;;;;;;3.37;2.20;;;;;;;25.55;48.23;96327.13;5030687;28;24523;-72
2022/07/21 11:19:37;;;;;;;3.00;2.20;;;;;;;25.53;46.81;96323.81;5030171;28;24438;-72
2022/07/21 11:22:07;;;;;;;4.45;2.40;;;;;;;25.62;46.80;96319.28;5030603;28;24889;-72
2022/07/21 11:24:34;;;;;;;4.07;2.30;;;;;;;25.92;46.83;96322.06;5030380;28;25000;-72
2022/07/21 11:27:05;;;;;;;2.10;1.90;;;;;;;25.77;46.10;96317.53;5030498;28;24786;-72
2022/07/21 11:29:33;;;;;;;3.23;2.33;;;;;;;26.05;46.59;96322.31;5030788;28;25004;-72
2022/07/21 11:32:01;;;;;;;3.65;2.40;;;;;;;25.80;45.92;96321.66;5030646;28;24436;-72
2022/07/21 11:34:38;;;;;;;6.53;2.63;;;;;;;25.31;47.53;96322.78;5030162;28;24546;-72
2022/07/21 11:37:05;;;;;;;4.90;2.15;;;;;;;25.39;46.65;96321.09;5030406;28;24486;-72
2022/07/21 11:39:31;;;;;;;3.70;2.57;;;;;;;25.55;48.48;96321.84;5024424;28;24428;-72